createdAt,value
2017-10-02T00:00:15.115Z,14.42
2017-10-02T00:01:23.950Z,14.37
2017-10-02T00:02:32.783Z,14.36
2017-10-02T00:03:41.944Z,14.39
2017-10-02T00:04:50.778Z,14.36
2017-10-02T00:05:59.608Z,14.37
2017-10-02T00:07:08.447Z,14.28
2017-10-02T00:08:17.284Z,14.33
2017-10-02T00:09:26.120Z,14.25
2017-10-02T00:10:34.955Z,14.27
2017-10-02T00:11:43.792Z,14.37
2017-10-02T00:12:52.622Z,14.36
2017-10-02T00:14:01.458Z,14.25
2017-10-02T00:15:10.622Z,14.25
2017-10-02T00:16:19.458Z,14.29
2017-10-02T00:17:28.289Z,14.33
2017-10-02T00:18:37.119Z,14.27
2017-10-02T00:19:45.958Z,14.25
2017-10-02T00:20:54.791Z,14.24
2017-10-02T00:22:03.625Z,14.32
2017-10-02T00:23:12.452Z,14.29
2017-10-02T00:24:21.282Z,14.25
2017-10-02T00:25:30.122Z,14.25
2017-10-02T00:26:38.954Z,14.32
2017-10-02T00:27:47.788Z,14.22
2017-10-02T00:28:56.620Z,14.21
2017-10-02T00:30:05.458Z,14.21
2017-10-02T00:31:14.293Z,14.22
2017-10-02T00:32:23.128Z,14.24
2017-10-02T00:33:31.960Z,14.2
2017-10-02T00:34:40.794Z,14.21
2017-10-02T00:35:49.632Z,14.15
2017-10-02T00:36:58.462Z,14.1
2017-10-02T00:38:07.296Z,14.18
2017-10-02T00:39:16.128Z,14.22
2017-10-02T00:40:24.966Z,14.12
2017-10-02T00:41:33.799Z,14.12
2017-10-02T00:42:42.635Z,14.14
2017-10-02T00:43:51.465Z,14.24
2017-10-02T00:45:00.304Z,14.18
2017-10-02T00:46:09.137Z,14.1
2017-10-02T00:47:17.966Z,14.06
2017-10-02T00:48:26.800Z,14.1
2017-10-02T00:49:35.631Z,14.07
2017-10-02T00:50:44.464Z,14.09
2017-10-02T00:51:53.296Z,14.06
2017-10-02T00:53:02.141Z,14
2017-10-02T00:54:10.975Z,14.02
2017-10-02T00:55:19.804Z,14.04
2017-10-02T00:56:28.964Z,14.07
2017-10-02T00:57:37.800Z,13.99
2017-10-02T00:58:46.630Z,14.03
2017-10-02T00:59:55.465Z,13.95
2017-10-02T01:01:04.302Z,13.96
2017-10-02T01:02:13.136Z,13.97
2017-10-02T01:03:21.971Z,13.87
2017-10-02T01:04:30.809Z,13.89
2017-10-02T01:05:39.642Z,13.96
2017-10-02T01:06:48.480Z,13.92
2017-10-02T01:07:57.305Z,13.95
2017-10-02T01:09:06.140Z,13.96
2017-10-02T01:10:14.977Z,13.88
2017-10-02T01:11:24.134Z,13.92
2017-10-02T01:12:32.964Z,13.95
2017-10-02T01:13:41.802Z,13.89
2017-10-02T01:14:50.636Z,13.95
2017-10-02T01:15:59.466Z,13.96
2017-10-02T01:17:08.633Z,13.89
2017-10-02T01:18:17.803Z,13.97
2017-10-02T01:19:26.634Z,13.91
2017-10-02T01:20:35.805Z,13.89
2017-10-02T01:21:45.281Z,13.87
2017-10-02T01:22:54.118Z,14
2017-10-02T01:24:03.601Z,13.99
2017-10-02T01:25:12.439Z,13.97
2017-10-02T01:26:21.274Z,13.95
2017-10-02T01:27:30.110Z,13.99
2017-10-02T01:28:38.939Z,13.96
2017-10-02T01:29:47.776Z,13.96
2017-10-02T01:30:56.612Z,13.96
2017-10-02T01:32:05.764Z,13.96
2017-10-02T01:33:14.602Z,13.87
2017-10-02T01:34:23.435Z,13.92
2017-10-02T01:35:32.272Z,13.99
2017-10-02T01:36:41.104Z,13.88
2017-10-02T01:37:49.936Z,13.96
2017-10-02T01:38:58.767Z,13.85
2017-10-02T01:40:07.606Z,13.87
2017-10-02T01:41:16.438Z,13.85
2017-10-02T01:42:25.269Z,13.96
2017-10-02T01:43:34.100Z,13.85
2017-10-02T01:44:42.939Z,13.85
2017-10-02T01:45:51.773Z,13.84
2017-10-02T01:47:00.605Z,13.84
2017-10-02T01:48:09.441Z,13.82
2017-10-02T01:49:18.274Z,13.87
2017-10-02T01:50:27.108Z,13.96
2017-10-02T01:51:35.939Z,13.91
2017-10-02T01:52:44.769Z,13.88
2017-10-02T01:53:53.602Z,13.88
2017-10-02T01:55:02.434Z,13.89
2017-10-02T01:56:11.272Z,13.79
2017-10-02T01:57:20.105Z,13.88
2017-10-02T01:58:28.939Z,13.87
2017-10-02T01:59:37.770Z,13.85
2017-10-02T02:00:46.619Z,13.84
2017-10-02T02:01:55.445Z,13.85
2017-10-02T02:03:04.276Z,13.82
2017-10-02T02:04:13.112Z,13.81
2017-10-02T02:05:21.951Z,13.82
2017-10-02T02:06:30.782Z,13.85
2017-10-02T02:07:39.618Z,13.77
2017-10-02T02:08:48.459Z,13.85
2017-10-02T02:09:57.292Z,13.85
2017-10-02T02:11:06.118Z,13.85
2017-10-02T02:12:14.951Z,13.82
2017-10-02T02:13:23.784Z,13.85
2017-10-02T02:14:32.623Z,13.78
2017-10-02T02:15:41.458Z,13.79
2017-10-02T02:16:50.287Z,13.87
2017-10-02T02:17:59.124Z,13.78
2017-10-02T02:19:07.956Z,13.84
2017-10-02T02:20:16.790Z,13.84
2017-10-02T02:21:25.624Z,13.82
2017-10-02T02:22:34.460Z,13.87
2017-10-02T02:23:43.286Z,13.84
2017-10-02T02:24:52.122Z,13.81
2017-10-02T02:26:00.957Z,13.79
2017-10-02T02:27:09.792Z,13.84
2017-10-02T02:28:18.622Z,13.81
2017-10-02T02:29:27.456Z,13.84
2017-10-02T02:30:36.613Z,13.85
2017-10-02T02:31:45.452Z,13.77
2017-10-02T02:32:54.606Z,13.84
2017-10-02T02:34:03.434Z,13.79
2017-10-02T02:35:12.269Z,13.85
2017-10-02T02:36:21.427Z,13.87
2017-10-02T02:37:30.261Z,13.82
2017-10-02T02:38:39.090Z,13.85
2017-10-02T02:39:47.934Z,13.87
2017-10-02T02:40:56.776Z,13.84
2017-10-02T02:42:05.608Z,13.82
2017-10-02T02:43:14.447Z,13.85
2017-10-02T02:44:23.922Z,13.84
2017-10-02T02:45:32.757Z,13.79
2017-10-02T02:46:41.596Z,13.85
2017-10-02T02:47:50.769Z,13.82
2017-10-02T02:48:59.598Z,13.85
2017-10-02T02:50:08.436Z,13.82
2017-10-02T02:51:17.593Z,13.79
2017-10-02T02:52:26.428Z,13.79
2017-10-02T02:53:35.589Z,13.84
2017-10-02T02:54:44.421Z,13.79
2017-10-02T02:55:53.254Z,13.85
2017-10-02T02:57:02.089Z,13.85
2017-10-02T02:58:10.928Z,13.78
2017-10-02T02:59:19.764Z,13.85
2017-10-02T03:00:28.597Z,13.78
2017-10-02T03:01:37.429Z,13.85
2017-10-02T03:02:46.262Z,13.79
2017-10-02T03:03:55.095Z,13.85
2017-10-02T03:05:03.926Z,13.73
2017-10-02T03:06:12.756Z,13.77
2017-10-02T03:07:21.589Z,13.84
2017-10-02T03:08:30.427Z,13.75
2017-10-02T03:09:39.260Z,13.78
2017-10-02T03:10:48.092Z,13.73
2017-10-02T03:11:56.926Z,13.77
2017-10-02T03:13:05.755Z,13.71
2017-10-02T03:14:14.593Z,13.73
2017-10-02T03:15:23.429Z,13.73
2017-10-02T03:16:32.262Z,13.7
2017-10-02T03:17:41.415Z,13.75
2017-10-02T03:18:50.572Z,13.77
2017-10-02T03:19:59.405Z,13.69
2017-10-02T03:21:08.239Z,13.75
2017-10-02T03:22:17.076Z,13.57
2017-10-02T03:23:25.901Z,13.63
2017-10-02T03:24:34.731Z,13.69
2017-10-02T03:25:43.569Z,13.73
2017-10-02T03:26:52.404Z,13.59
2017-10-02T03:28:01.241Z,13.63
2017-10-02T03:29:10.073Z,13.71
2017-10-02T03:30:19.228Z,13.63
2017-10-02T03:31:28.062Z,13.6
2017-10-02T03:32:36.902Z,13.73
2017-10-02T03:33:45.732Z,13.55
2017-10-02T03:34:54.568Z,13.7
2017-10-02T03:36:03.401Z,13.66
2017-10-02T03:37:12.238Z,13.62
2017-10-02T03:38:21.068Z,13.62
2017-10-02T03:39:29.904Z,13.6
2017-10-02T03:40:38.734Z,13.66
2017-10-02T03:41:47.576Z,13.57
2017-10-02T03:42:56.413Z,13.59
2017-10-02T03:44:05.241Z,13.55
2017-10-02T03:45:14.074Z,13.48
2017-10-02T03:46:22.912Z,13.51
2017-10-02T03:47:32.061Z,13.51
2017-10-02T03:48:40.896Z,13.49
2017-10-02T03:49:49.734Z,13.49
2017-10-02T03:50:58.566Z,13.48
2017-10-02T03:52:07.394Z,13.46
2017-10-02T03:53:16.233Z,13.51
2017-10-02T03:54:25.067Z,13.51
2017-10-02T03:55:33.903Z,13.38
2017-10-02T03:56:42.744Z,13.46
2017-10-02T03:57:51.586Z,13.42
2017-10-02T03:59:00.425Z,13.44
2017-10-02T04:00:09.312Z,13.45
2017-10-02T04:01:18.151Z,13.46
2017-10-02T04:02:26.988Z,13.45
2017-10-02T04:03:35.823Z,13.52
2017-10-02T04:04:44.663Z,13.54
2017-10-02T04:05:53.504Z,13.48
2017-10-02T04:07:02.666Z,13.51
2017-10-02T04:08:11.510Z,13.52
2017-10-02T04:09:20.353Z,13.46
2017-10-02T04:10:29.189Z,13.49
2017-10-02T04:11:38.027Z,13.49
2017-10-02T04:12:46.863Z,13.42
2017-10-02T04:13:55.705Z,13.52
2017-10-02T04:15:04.542Z,13.44
2017-10-02T04:16:13.380Z,13.45
2017-10-02T04:17:22.220Z,13.46
2017-10-02T04:18:31.058Z,13.44
2017-10-02T04:19:39.898Z,13.42
2017-10-02T04:20:48.737Z,13.42
2017-10-02T04:21:57.899Z,13.39
2017-10-02T04:23:06.737Z,13.42
2017-10-02T04:24:15.575Z,13.36
2017-10-02T04:25:24.415Z,13.41
2017-10-02T04:26:33.258Z,13.41
2017-10-02T04:27:42.096Z,13.42
2017-10-02T04:28:50.931Z,13.42
2017-10-02T04:29:59.780Z,13.41
2017-10-02T04:31:08.614Z,13.46
2017-10-02T04:32:17.454Z,13.39
2017-10-02T04:33:26.296Z,13.36
2017-10-02T04:34:35.135Z,13.38
2017-10-02T04:35:43.975Z,13.41
2017-10-02T04:36:52.812Z,13.41
2017-10-02T04:38:01.649Z,13.38
2017-10-02T04:39:10.488Z,13.36
2017-10-02T04:40:19.327Z,13.39
2017-10-02T04:41:28.169Z,13.36
2017-10-02T04:42:37.006Z,13.46
2017-10-02T04:43:45.842Z,13.41
2017-10-02T04:44:54.683Z,13.42
2017-10-02T04:46:03.516Z,13.38
2017-10-02T04:47:12.359Z,13.48
2017-10-02T04:48:21.197Z,13.41
2017-10-02T04:49:30.034Z,13.39
2017-10-02T04:50:38.870Z,13.39
2017-10-02T04:51:47.713Z,13.48
2017-10-02T04:52:56.549Z,13.45
2017-10-02T04:54:05.394Z,13.32
2017-10-02T04:55:14.228Z,13.44
2017-10-02T04:56:23.064Z,13.41
2017-10-02T04:57:31.903Z,13.41
2017-10-02T04:58:40.744Z,13.29
2017-10-02T04:59:49.579Z,13.45
2017-10-02T05:00:58.419Z,13.33
2017-10-02T05:02:07.253Z,13.3
2017-10-02T05:03:16.418Z,13.41
2017-10-02T05:04:25.903Z,13.33
2017-10-02T05:05:34.751Z,13.45
2017-10-02T05:06:43.583Z,13.42
2017-10-02T05:07:52.417Z,13.32
2017-10-02T05:09:01.256Z,13.38
2017-10-02T05:10:10.095Z,13.29
2017-10-02T05:11:18.939Z,13.38
2017-10-02T05:12:27.796Z,13.32
2017-10-02T05:13:36.936Z,13.33
2017-10-02T05:14:45.770Z,13.29
2017-10-02T05:15:54.611Z,13.22
2017-10-02T05:17:03.448Z,13.33
2017-10-02T05:18:12.285Z,13.25
2017-10-02T05:19:21.127Z,13.3
2017-10-02T05:20:29.965Z,13.3
2017-10-02T05:21:38.804Z,13.45
2017-10-02T05:22:47.970Z,13.41
2017-10-02T05:23:56.806Z,13.33
2017-10-02T05:25:05.646Z,13.38
2017-10-02T05:26:14.488Z,13.41
2017-10-02T05:27:23.325Z,13.41
2017-10-02T05:28:32.167Z,13.39
2017-10-02T05:29:41.001Z,13.38
2017-10-02T05:30:49.844Z,13.28
2017-10-02T05:31:59.022Z,13.44
2017-10-02T05:33:07.857Z,13.41
2017-10-02T05:34:16.699Z,13.41
2017-10-02T05:35:25.539Z,13.41
2017-10-02T05:36:34.381Z,13.39
2017-10-02T05:37:43.219Z,13.44
2017-10-02T05:38:52.056Z,13.44
2017-10-02T05:40:00.896Z,13.36
2017-10-02T05:41:09.736Z,13.44
2017-10-02T05:42:18.580Z,13.39
2017-10-02T05:43:27.413Z,13.39
2017-10-02T05:44:36.255Z,13.41
2017-10-02T05:45:45.095Z,13.39
2017-10-02T05:46:54.257Z,13.41
2017-10-02T05:48:03.098Z,13.41
2017-10-02T05:49:11.940Z,13.48
2017-10-02T05:50:20.772Z,13.32
2017-10-02T05:51:29.608Z,13.41
2017-10-02T05:52:38.450Z,13.45
2017-10-02T05:53:47.286Z,13.39
2017-10-02T05:54:56.126Z,13.44
2017-10-02T05:56:05.297Z,13.39
2017-10-02T05:57:14.129Z,13.41
2017-10-02T05:58:22.969Z,13.41
2017-10-02T05:59:31.809Z,13.41
2017-10-02T06:00:40.652Z,13.42
2017-10-02T06:01:49.488Z,13.41
2017-10-02T06:02:58.327Z,13.39
2017-10-02T06:04:07.165Z,13.39
2017-10-02T06:05:16.006Z,13.39
2017-10-02T06:06:24.845Z,13.39
2017-10-02T06:07:33.680Z,13.41
2017-10-02T06:08:42.518Z,13.44
2017-10-02T06:09:51.359Z,13.39
2017-10-02T06:11:00.525Z,13.39
2017-10-02T06:12:09.363Z,13.44
2017-10-02T06:13:18.199Z,13.42
2017-10-02T06:14:27.035Z,13.44
2017-10-02T06:15:36.204Z,13.41
2017-10-02T06:16:45.049Z,13.51
2017-10-02T06:17:53.888Z,13.55
2017-10-02T06:19:02.726Z,13.59
2017-10-02T06:20:11.562Z,13.62
2017-10-02T06:21:20.403Z,13.62
2017-10-02T06:22:29.241Z,13.63
2017-10-02T06:23:38.083Z,13.55
2017-10-02T06:24:46.920Z,13.71
2017-10-02T06:25:56.089Z,13.67
2017-10-02T06:27:04.927Z,13.63
2017-10-02T06:28:13.762Z,13.69
2017-10-02T06:29:22.597Z,13.73
2017-10-02T06:30:31.439Z,13.71
2017-10-02T06:31:40.604Z,13.69
2017-10-02T06:32:49.439Z,13.7
2017-10-02T06:33:58.275Z,13.78
2017-10-02T06:35:07.118Z,13.77
2017-10-02T06:36:15.951Z,13.71
2017-10-02T06:37:24.789Z,13.78
2017-10-02T06:38:33.628Z,13.85
2017-10-02T06:39:42.469Z,13.75
2017-10-02T06:40:51.307Z,13.79
2017-10-02T06:42:00.152Z,13.79
2017-10-02T06:43:08.991Z,13.84
2017-10-02T06:44:17.833Z,13.82
2017-10-02T06:45:26.667Z,13.81
2017-10-02T06:46:35.503Z,13.87
2017-10-02T06:47:44.346Z,13.89
2017-10-02T06:48:53.186Z,13.87
2017-10-02T06:50:02.025Z,13.82
2017-10-02T06:51:10.864Z,13.85
2017-10-02T06:52:19.699Z,13.82
2017-10-02T06:53:28.532Z,13.82
2017-10-02T06:54:37.373Z,13.88
2017-10-02T06:55:46.216Z,13.96
2017-10-02T06:56:55.052Z,13.97
2017-10-02T06:58:03.888Z,14.02
2017-10-02T06:59:12.729Z,13.92
2017-10-02T07:00:21.567Z,13.95
2017-10-02T07:01:30.411Z,14.02
2017-10-02T07:02:39.248Z,14.04
2017-10-02T07:03:48.083Z,14.03
2017-10-02T07:04:56.920Z,14.1
2017-10-02T07:06:05.762Z,14.14
2017-10-02T07:07:14.597Z,14.1
2017-10-02T07:08:23.442Z,14.1
2017-10-02T07:09:32.277Z,14.07
2017-10-02T07:10:41.113Z,14.12
2017-10-02T07:11:49.954Z,14.12
2017-10-02T07:12:58.798Z,14.1
2017-10-02T07:14:07.636Z,14.1
2017-10-02T07:15:16.474Z,14.1
2017-10-02T07:16:25.313Z,14.12
2017-10-02T07:17:34.156Z,14.15
2017-10-02T07:18:42.994Z,14.14
2017-10-02T07:19:51.838Z,14.14
2017-10-02T07:21:00.677Z,14.22
2017-10-02T07:22:09.518Z,14.24
2017-10-02T07:23:18.356Z,14.21
2017-10-02T07:24:27.195Z,14.27
2017-10-02T07:25:36.036Z,14.24
2017-10-02T07:26:44.871Z,14.22
2017-10-02T07:27:53.712Z,14.25
2017-10-02T07:29:02.548Z,14.22
2017-10-02T07:30:11.392Z,14.22
2017-10-02T07:31:20.227Z,14.28
2017-10-02T07:32:29.075Z,14.33
2017-10-02T07:33:37.908Z,14.33
2017-10-02T07:34:46.752Z,14.25
2017-10-02T07:35:55.589Z,14.29
2017-10-02T07:37:04.430Z,14.28
2017-10-02T07:38:13.268Z,14.29
2017-10-02T07:39:22.110Z,14.36
2017-10-02T07:40:30.947Z,14.36
2017-10-02T07:41:39.784Z,14.39
2017-10-02T07:42:48.629Z,14.4
2017-10-02T07:43:57.466Z,14.4
2017-10-02T07:45:06.303Z,14.4
2017-10-02T07:46:15.146Z,14.39
2017-10-02T07:47:23.982Z,14.51
2017-10-02T07:48:32.822Z,14.42
2017-10-02T07:49:41.660Z,14.42
2017-10-02T07:50:50.501Z,14.39
2017-10-02T07:51:59.338Z,14.45
2017-10-02T07:53:08.178Z,14.52
2017-10-02T07:54:17.016Z,14.47
2017-10-02T07:55:25.852Z,14.5
2017-10-02T07:56:34.696Z,14.47
2017-10-02T07:57:43.534Z,14.51
2017-10-02T07:58:52.376Z,14.6
2017-10-02T08:00:01.220Z,14.62
2017-10-02T08:01:10.070Z,14.64
2017-10-02T08:02:18.910Z,14.62
2017-10-02T08:03:27.747Z,14.61
2017-10-02T08:04:36.589Z,14.62
2017-10-02T08:05:45.427Z,14.6
2017-10-02T08:06:54.595Z,14.65
2017-10-02T08:08:03.436Z,14.72
2017-10-02T08:09:12.270Z,14.72
2017-10-02T08:10:21.113Z,14.72
2017-10-02T08:11:29.953Z,14.8
2017-10-02T08:12:38.795Z,14.8
2017-10-02T08:13:47.632Z,14.83
2017-10-02T08:14:56.466Z,14.81
2017-10-02T08:16:05.306Z,14.81
2017-10-02T08:17:14.147Z,14.92
2017-10-02T08:18:22.999Z,14.99
2017-10-02T08:19:31.831Z,15.03
2017-10-02T08:20:40.999Z,14.99
2017-10-02T08:21:49.836Z,15.01
2017-10-02T08:22:58.675Z,15.02
2017-10-02T08:24:07.519Z,15.02
2017-10-02T08:25:16.356Z,14.98
2017-10-02T08:26:25.192Z,14.92
2017-10-02T08:27:34.039Z,14.92
2017-10-02T08:28:42.878Z,14.92
2017-10-02T08:29:51.715Z,14.99
2017-10-02T08:31:00.574Z,15.01
2017-10-02T08:32:09.398Z,15.02
2017-10-02T08:33:18.239Z,15.07
2017-10-02T08:34:27.082Z,14.99
2017-10-02T08:35:35.916Z,15.06
2017-10-02T08:36:44.753Z,15.06
2017-10-02T08:37:53.597Z,15.11
2017-10-02T08:39:02.440Z,15.16
2017-10-02T08:40:11.277Z,15.19
2017-10-02T08:41:20.123Z,15.23
2017-10-02T08:42:28.964Z,15.17
2017-10-02T08:43:37.803Z,15.25
2017-10-02T08:44:46.646Z,15.31
2017-10-02T08:45:55.491Z,15.36
2017-10-02T08:47:04.326Z,15.43
2017-10-02T08:48:13.493Z,15.34
2017-10-02T08:49:22.335Z,15.39
2017-10-02T08:50:31.178Z,15.49
2017-10-02T08:51:40.020Z,15.46
2017-10-02T08:52:48.861Z,15.54
2017-10-02T08:53:57.699Z,15.6
2017-10-02T08:55:06.541Z,15.57
2017-10-02T08:56:15.380Z,15.62
2017-10-02T08:57:24.220Z,15.65
2017-10-02T08:58:33.062Z,15.68
2017-10-02T08:59:41.904Z,15.71
2017-10-02T09:00:51.064Z,15.74
2017-10-02T09:01:59.907Z,15.72
2017-10-02T09:03:08.749Z,15.74
2017-10-02T09:04:17.911Z,15.69
2017-10-02T09:05:26.751Z,15.68
2017-10-02T09:06:35.590Z,15.69
2017-10-02T09:07:44.435Z,15.69
2017-10-02T09:08:53.276Z,15.71
2017-10-02T09:10:02.115Z,15.72
2017-10-02T09:11:10.958Z,15.71
2017-10-02T09:12:19.800Z,15.68
2017-10-02T09:13:28.644Z,15.71
2017-10-02T09:14:37.483Z,15.69
2017-10-02T09:15:46.326Z,15.75
2017-10-02T09:16:55.164Z,15.72
2017-10-02T09:18:04.006Z,15.84
2017-10-02T09:19:12.843Z,15.76
2017-10-02T09:20:21.717Z,15.84
2017-10-02T09:21:30.530Z,15.84
2017-10-02T09:22:39.374Z,15.83
2017-10-02T09:23:48.211Z,15.75
2017-10-02T09:24:57.052Z,15.8
2017-10-02T09:26:05.895Z,15.84
2017-10-02T09:27:15.068Z,15.83
2017-10-02T09:28:23.902Z,15.89
2017-10-02T09:29:32.746Z,15.93
2017-10-02T09:30:41.587Z,16.01
2017-10-02T09:31:50.426Z,15.94
2017-10-02T09:32:59.269Z,16.04
2017-10-02T09:34:08.112Z,16.08
2017-10-02T09:35:16.957Z,16.11
2017-10-02T09:36:25.794Z,16.11
2017-10-02T09:37:34.634Z,16.17
2017-10-02T09:38:43.482Z,16.21
2017-10-02T09:39:52.322Z,16.08
2017-10-02T09:41:01.164Z,16.14
2017-10-02T09:42:10.006Z,16.12
2017-10-02T09:43:18.848Z,16.21
2017-10-02T09:44:27.688Z,16.12
2017-10-02T09:45:36.856Z,16.21
2017-10-02T09:46:45.696Z,16.2
2017-10-02T09:47:54.539Z,16.2
2017-10-02T09:49:03.379Z,16.21
2017-10-02T09:50:12.221Z,16.24
2017-10-02T09:51:21.063Z,16.31
2017-10-02T09:52:29.903Z,16.28
2017-10-02T09:53:38.740Z,16.33
2017-10-02T09:54:47.578Z,16.34
2017-10-02T09:55:56.418Z,16.38
2017-10-02T09:57:05.265Z,16.41
2017-10-02T09:58:14.105Z,16.43
2017-10-02T09:59:23.276Z,16.43
2017-10-02T10:00:32.118Z,16.56
2017-10-02T10:01:40.960Z,16.56
2017-10-02T10:02:49.801Z,16.46
2017-10-02T10:03:58.646Z,16.53
2017-10-02T10:05:07.487Z,16.57
2017-10-02T10:06:16.324Z,16.46
2017-10-02T10:07:25.165Z,16.57
2017-10-02T10:08:34.013Z,16.64
2017-10-02T10:09:42.850Z,16.68
2017-10-02T10:10:51.696Z,16.73
2017-10-02T10:12:00.533Z,16.73
2017-10-02T10:13:09.374Z,16.78
2017-10-02T10:14:18.216Z,16.75
2017-10-02T10:15:27.061Z,16.76
2017-10-02T10:16:35.901Z,16.82
2017-10-02T10:17:44.742Z,16.86
2017-10-02T10:18:53.577Z,16.86
2017-10-02T10:20:02.412Z,16.88
2017-10-02T10:21:11.256Z,16.86
2017-10-02T10:22:20.104Z,16.89
2017-10-02T10:23:28.944Z,16.97
2017-10-02T10:24:37.790Z,16.97
2017-10-02T10:25:46.623Z,16.86
2017-10-02T10:26:55.463Z,16.91
2017-10-02T10:28:04.303Z,16.91
2017-10-02T10:29:13.150Z,16.89
2017-10-02T10:30:21.989Z,16.86
2017-10-02T10:31:30.829Z,16.91
2017-10-02T10:32:39.670Z,16.89
2017-10-02T10:33:48.508Z,16.98
2017-10-02T10:34:57.353Z,16.85
2017-10-02T10:36:06.195Z,16.89
2017-10-02T10:37:15.030Z,16.88
2017-10-02T10:38:23.871Z,16.89
2017-10-02T10:39:32.713Z,16.89
2017-10-02T10:40:41.556Z,16.88
2017-10-02T10:41:50.399Z,16.82
2017-10-02T10:42:59.245Z,16.83
2017-10-02T10:44:08.085Z,16.86
2017-10-02T10:45:16.923Z,16.76
2017-10-02T10:46:25.770Z,16.82
2017-10-02T10:47:34.611Z,16.75
2017-10-02T10:48:43.453Z,16.75
2017-10-02T10:49:52.297Z,16.76
2017-10-02T10:51:01.139Z,16.78
2017-10-02T10:52:09.980Z,16.64
2017-10-02T10:53:18.832Z,16.68
2017-10-02T10:54:27.676Z,16.52
2017-10-02T10:55:36.516Z,16.61
2017-10-02T10:56:45.358Z,16.52
2017-10-02T10:57:54.196Z,16.53
2017-10-02T10:59:03.362Z,16.48
2017-10-02T11:00:12.206Z,16.53
2017-10-02T11:01:21.044Z,16.43
2017-10-02T11:02:29.889Z,16.52
2017-10-02T11:03:38.735Z,16.45
2017-10-02T11:04:47.572Z,16.41
2017-10-02T11:05:56.415Z,16.3
2017-10-02T11:07:05.257Z,16.25
2017-10-02T11:08:14.101Z,16.15
2017-10-02T11:09:22.936Z,16.21
2017-10-02T11:10:31.782Z,16.14
2017-10-02T11:11:40.622Z,16.15
2017-10-02T11:12:49.464Z,16.14
2017-10-02T11:13:58.303Z,16.11
2017-10-02T11:15:07.141Z,16.07
2017-10-02T11:16:15.987Z,16.04
2017-10-02T11:17:24.828Z,16.01
2017-10-02T11:18:33.670Z,15.9
2017-10-02T11:19:42.513Z,15.9
2017-10-02T11:20:51.351Z,15.82
2017-10-02T11:22:00.192Z,15.89
2017-10-02T11:23:09.035Z,15.72
2017-10-02T11:24:17.873Z,15.68
2017-10-02T11:25:26.711Z,15.72
2017-10-02T11:26:35.555Z,15.71
2017-10-02T11:27:44.393Z,15.59
2017-10-02T11:28:53.234Z,15.59
2017-10-02T11:30:02.077Z,15.53
2017-10-02T11:31:10.918Z,15.43
2017-10-02T11:32:19.762Z,15.53
2017-10-02T11:33:28.603Z,15.43
2017-10-02T11:34:37.470Z,15.32
2017-10-02T11:35:46.282Z,15.41
2017-10-02T11:36:55.124Z,15.23
2017-10-02T11:38:03.966Z,15.27
2017-10-02T11:39:12.809Z,15.27
2017-10-02T11:40:21.657Z,15.23
2017-10-02T11:41:30.495Z,15.17
2017-10-02T11:42:39.336Z,15.23
2017-10-02T11:43:48.175Z,15.19
2017-10-02T11:44:57.015Z,15.03
2017-10-02T11:46:05.854Z,14.94
2017-10-02T11:47:14.698Z,15.06
2017-10-02T11:48:23.539Z,15.03
2017-10-02T11:49:32.375Z,14.95
2017-10-02T11:50:41.216Z,14.95
2017-10-02T11:51:50.057Z,14.96
2017-10-02T11:52:58.896Z,15.03
2017-10-02T11:54:08.056Z,15.09
2017-10-02T11:55:16.893Z,14.99
2017-10-02T11:56:25.730Z,14.96
2017-10-02T11:57:34.576Z,15.03
2017-10-02T11:58:43.421Z,14.99
2017-10-02T11:59:52.261Z,15.02
2017-10-02T12:01:01.098Z,15.01
2017-10-02T12:02:09.934Z,15.06
2017-10-02T12:03:18.777Z,15.02
2017-10-02T12:04:27.615Z,15.09
2017-10-02T12:05:36.457Z,14.95
2017-10-02T12:06:45.295Z,15.01
2017-10-02T12:07:54.136Z,15.01
2017-10-02T12:09:02.984Z,14.94
2017-10-02T12:10:11.821Z,14.77
2017-10-02T12:11:20.665Z,14.77
2017-10-02T12:12:29.504Z,14.78
2017-10-02T12:13:38.343Z,14.8
2017-10-02T12:14:47.505Z,14.88
2017-10-02T12:15:56.344Z,14.96
2017-10-02T12:17:05.186Z,14.92
2017-10-02T12:18:14.029Z,14.94
2017-10-02T12:19:22.873Z,14.94
2017-10-02T12:20:31.711Z,14.91
2017-10-02T12:21:40.552Z,14.92
2017-10-02T12:22:49.395Z,14.92
2017-10-02T12:23:58.233Z,14.96
2017-10-02T12:25:07.402Z,15.01
2017-10-02T12:26:16.244Z,15.03
2017-10-02T12:27:25.078Z,14.96
2017-10-02T12:28:33.917Z,15.03
2017-10-02T12:29:42.757Z,14.92
2017-10-02T12:30:51.599Z,14.94
2017-10-02T12:32:00.769Z,14.96
2017-10-02T12:33:09.610Z,14.98
2017-10-02T12:34:18.446Z,14.92
2017-10-02T12:35:27.287Z,14.96
2017-10-02T12:36:36.127Z,14.92
2017-10-02T12:37:44.967Z,14.96
2017-10-02T12:38:53.817Z,15.01
2017-10-02T12:40:02.661Z,14.92
2017-10-02T12:41:11.496Z,14.92
2017-10-02T12:42:20.336Z,14.96
2017-10-02T12:43:29.176Z,14.98
2017-10-02T12:44:38.018Z,14.92
2017-10-02T12:45:46.869Z,14.96
2017-10-02T12:46:55.693Z,14.95
2017-10-02T12:48:04.537Z,14.8
2017-10-02T12:49:13.370Z,14.89
2017-10-02T12:50:22.212Z,14.81
2017-10-02T12:51:31.047Z,14.75
2017-10-02T12:52:39.891Z,14.81
2017-10-02T12:53:48.730Z,14.86
2017-10-02T12:54:57.567Z,14.83
2017-10-02T12:56:06.727Z,14.88
2017-10-02T12:57:15.567Z,14.68
2017-10-02T12:58:24.407Z,14.78
2017-10-02T12:59:33.247Z,14.83
2017-10-02T13:00:42.093Z,14.8
2017-10-02T13:01:50.928Z,14.83
2017-10-02T13:02:59.765Z,14.83
2017-10-02T13:04:08.609Z,14.81
2017-10-02T13:05:17.449Z,14.81
2017-10-02T13:06:26.287Z,14.77
2017-10-02T13:07:35.127Z,14.8
2017-10-02T13:08:43.971Z,14.78
2017-10-02T13:09:52.806Z,14.88
2017-10-02T13:11:01.648Z,14.89
2017-10-02T13:12:10.493Z,14.89
2017-10-02T13:13:19.333Z,14.84
2017-10-02T13:14:28.173Z,14.77
2017-10-02T13:15:37.006Z,14.81
2017-10-02T13:16:45.847Z,14.78
2017-10-02T13:17:55.006Z,14.77
2017-10-02T13:19:03.847Z,14.81
2017-10-02T13:20:12.690Z,14.95
2017-10-02T13:21:21.849Z,14.98
2017-10-02T13:22:30.691Z,14.81
2017-10-02T13:23:39.532Z,14.77
2017-10-02T13:24:48.370Z,14.83
2017-10-02T13:25:57.209Z,14.75
2017-10-02T13:27:06.051Z,14.81
2017-10-02T13:28:14.890Z,14.83
2017-10-02T13:29:23.730Z,14.83
2017-10-02T13:30:32.567Z,14.81
2017-10-02T13:31:41.411Z,14.8
2017-10-02T13:32:50.574Z,14.8
2017-10-02T13:33:59.411Z,14.8
2017-10-02T13:35:08.253Z,14.86
2017-10-02T13:36:17.091Z,14.89
2017-10-02T13:37:26.260Z,14.81
2017-10-02T13:38:35.096Z,14.83
2017-10-02T13:39:43.935Z,14.69
2017-10-02T13:40:52.776Z,14.69
2017-10-02T13:42:01.619Z,14.72
2017-10-02T13:43:10.452Z,14.72
2017-10-02T13:44:19.296Z,14.69
2017-10-02T13:45:28.138Z,14.69
2017-10-02T13:46:37.295Z,14.72
2017-10-02T13:47:46.141Z,14.69
2017-10-02T13:48:54.983Z,14.7
2017-10-02T13:50:03.821Z,14.61
2017-10-02T13:51:12.655Z,14.65
2017-10-02T13:52:21.495Z,14.69
2017-10-02T13:53:30.334Z,14.64
2017-10-02T13:54:39.495Z,14.7
2017-10-02T13:55:48.348Z,14.64
2017-10-02T13:56:57.191Z,14.58
2017-10-02T13:58:06.035Z,14.61
2017-10-02T13:59:15.199Z,14.61
2017-10-02T14:00:24.037Z,14.73
2017-10-02T14:01:32.877Z,14.7
2017-10-02T14:02:41.713Z,14.68
2017-10-02T14:03:50.551Z,14.7
2017-10-02T14:04:59.388Z,14.7
2017-10-02T14:06:08.228Z,14.72
2017-10-02T14:07:17.068Z,14.7
2017-10-02T14:08:25.905Z,14.69
2017-10-02T14:09:34.746Z,14.65
2017-10-02T14:10:43.584Z,14.7
2017-10-02T14:11:52.424Z,14.64
2017-10-02T14:13:01.261Z,14.7
2017-10-02T14:14:10.103Z,14.75
2017-10-02T14:15:19.273Z,14.69
2017-10-02T14:16:28.111Z,14.72
2017-10-02T14:17:36.947Z,14.7
2017-10-02T14:18:45.782Z,14.69
2017-10-02T14:19:54.623Z,14.64
2017-10-02T14:21:03.460Z,14.61
2017-10-02T14:22:12.304Z,14.64
2017-10-02T14:23:21.146Z,14.65
2017-10-02T14:24:29.982Z,14.61
2017-10-02T14:25:38.818Z,14.73
2017-10-02T14:26:47.982Z,14.69
2017-10-02T14:27:56.821Z,14.69
2017-10-02T14:29:05.664Z,14.69
2017-10-02T14:30:14.508Z,14.65
2017-10-02T14:31:23.340Z,14.64
2017-10-02T14:32:32.182Z,14.64
2017-10-02T14:33:41.020Z,14.6
2017-10-02T14:34:49.861Z,14.65
2017-10-02T14:35:58.696Z,14.72
2017-10-02T14:37:07.532Z,14.7
2017-10-02T14:38:16.371Z,14.7
2017-10-02T14:39:25.212Z,14.73
2017-10-02T14:40:34.053Z,14.68
2017-10-02T14:41:42.888Z,14.72
2017-10-02T14:42:51.731Z,14.65
2017-10-02T14:44:00.570Z,14.7
2017-10-02T14:45:09.412Z,14.75
2017-10-02T14:46:18.249Z,14.7
2017-10-02T14:47:27.087Z,14.72
2017-10-02T14:48:35.927Z,14.7